Time;durP1;ratioP1;P1;durP2;ratioP2;P2;SDS_P1;SDS_P2;PMS_P1;PMS_P2;Temp;Humidity;BMP_temperature;BMP_pressure;BME280_temperature;BME280_humidity;BME280_pressure;Samples;Min_cycle;Max_cycle;Signal;HPM_P1;HPM_P2
2020/12/29 00:01:47;;;;;;;3.53;1.65;;;2.10;99.90;;;;;;5112632;28;20495;-72
2020/12/29 00:04:15;;;;;;;2.13;1.58;;;2.20;99.90;;;;;;5099342;28;20614;-71
2020/12/29 00:06:45;;;;;;;4.75;1.95;;;2.30;99.90;;;;;;5079295;28;20396;-72
2020/12/29 00:09:11;;;;;;;3.28;2.08;;;2.30;99.90;;;;;;5091814;28;20093;-72
2020/12/29 00:11:37;;;;;;;2.10;1.02;;;2.30;99.90;;;;;;5092454;28;20086;-72
2020/12/29 00:14:03;;;;;;;3.75;1.60;;;2.20;99.90;;;;;;5091795;28;20043;-72
2020/12/29 00:16:29;;;;;;;1.42;0.95;;;2.20;99.90;;;;;;5092551;28;20020;-72
2020/12/29 00:18:55;;;;;;;3.47;1.30;;;2.20;99.90;;;;;;5091453;28;20059;-74
2020/12/29 00:21:21;;;;;;;2.05;0.82;;;2.10;99.90;;;;;;5091806;28;20070;-70
2020/12/29 00:23:48;;;;;;;1.38;0.90;;;2.10;99.90;;;;;;5092140;28;20103;-70
2020/12/29 00:26:15;;;;;;;3.97;0.98;;;2.10;99.90;;;;;;5083183;28;20047;-71
2020/12/29 00:28:41;;;;;;;2.28;0.60;;;2.10;99.90;;;;;;5072036;28;20027;-72
2020/12/29 00:31:07;;;;;;;2.42;0.73;;;2.10;99.90;;;;;;5070624;28;20048;-72
2020/12/29 00:33:33;;;;;;;0.93;0.55;;;2.10;99.90;;;;;;5071833;28;20029;-72
2020/12/29 00:35:58;;;;;;;1.27;0.77;;;2.10;99.90;;;;;;5069385;28;20480;-72
2020/12/29 00:38:24;;;;;;;1.00;0.47;;;2.10;99.90;;;;;;5071934;28;20082;-72
2020/12/29 00:40:50;;;;;;;2.00;0.60;;;2.00;99.90;;;;;;5071614;28;20101;-72
2020/12/29 00:43:16;;;;;;;0.60;0.57;;;2.10;99.90;;;;;;5070965;28;20363;-72
2020/12/29 00:45:42;;;;;;;0.90;0.45;;;2.10;99.90;;;;;;5071559;28;20381;-72
2020/12/29 00:48:07;;;;;;;0.63;0.40;;;2.10;99.90;;;;;;5069732;28;20542;-72
2020/12/29 00:50:33;;;;;;;1.38;0.57;;;2.10;99.90;;;;;;5074880;28;20468;-72
2020/12/29 00:52:58;;;;;;;2.08;0.40;;;2.20;99.90;;;;;;5091056;28;20111;-72
2020/12/29 00:55:24;;;;;;;0.60;0.40;;;2.20;99.90;;;;;;5091577;28;20062;-72
2020/12/29 00:57:50;;;;;;;0.65;0.30;;;2.30;99.90;;;;;;5091893;28;20036;-71
2020/12/29 01:00:15;;;;;;;0.25;0.25;;;2.30;99.90;;;;;;5090951;28;20028;-72
2020/12/29 01:02:42;;;;;;;0.35;0.20;;;2.40;99.90;;;;;;5087014;28;20032;-73
2020/12/29 01:05:08;;;;;;;0.47;0.22;;;2.50;99.90;;;;;;5073128;28;20373;-74
2020/12/29 01:07:37;;;;;;;1.10;0.45;;;2.50;99.90;;;;;;5091421;28;20028;-73
2020/12/29 01:10:03;;;;;;;0.65;0.38;;;2.60;99.90;;;;;;5091323;28;20031;-73
2020/12/29 01:12:29;;;;;;;0.88;0.30;;;2.50;99.90;;;;;;5094524;28;20029;-74
2020/12/29 01:14:54;;;;;;;0.25;0.13;;;2.50;99.90;;;;;;5095626;28;20047;-75
2020/12/29 01:17:20;;;;;;;0.20;0.20;;;2.50;99.90;;;;;;5095664;28;20020;-74
2020/12/29 01:19:46;;;;;;;0.60;0.60;;;2.50;99.90;;;;;;5077786;28;20097;-73
2020/12/29 01:22:13;;;;;;;0.43;0.35;;;2.40;99.90;;;;;;5094475;28;20063;-73
2020/12/29 01:24:38;;;;;;;0.60;0.40;;;2.40;99.90;;;;;;5077700;28;20027;-73
2020/12/29 01:27:04;;;;;;;0.82;0.25;;;2.30;99.90;;;;;;5094970;28;20354;-73
2020/12/29 01:29:30;;;;;;;0.45;0.30;;;2.30;99.90;;;;;;5095505;28;20487;-73
2020/12/29 01:31:58;;;;;;;0.45;0.30;;;2.30;99.90;;;;;;5095067;28;20442;-74
2020/12/29 01:34:23;;;;;;;0.30;0.20;;;2.20;99.90;;;;;;5077378;28;20032;-73
2020/12/29 01:36:49;;;;;;;1.25;0.40;;;2.20;99.90;;;;;;5095237;28;20388;-72
2020/12/29 01:39:15;;;;;;;1.35;0.20;;;2.20;99.90;;;;;;5094336;28;20020;-73
2020/12/29 01:41:40;;;;;;;0.88;0.30;;;2.30;99.90;;;;;;5095073;28;20028;-72
2020/12/29 01:44:17;;;;;;;1.23;0.30;;;2.20;99.90;;;;;;5094664;28;20099;-72
2020/12/29 01:46:45;;;;;;;0.45;0.40;;;2.30;99.90;;;;;;5095379;28;20038;-72
2020/12/29 01:49:11;;;;;;;0.52;0.30;;;2.30;99.90;;;;;;5094564;28;20020;-72
2020/12/29 01:51:38;;;;;;;0.40;0.25;;;2.30;99.90;;;;;;5095182;28;20055;-72
2020/12/29 01:54:07;;;;;;;0.70;0.43;;;2.30;99.90;;;;;;5094553;28;20120;-72
2020/12/29 01:56:39;;;;;;;0.40;0.20;;;2.30;99.90;;;;;;5095271;28;20040;-72
2020/12/29 01:59:11;;;;;;;0.57;0.20;;;2.40;99.90;;;;;;5094205;28;20034;-72
2020/12/29 02:01:42;;;;;;;0.43;0.30;;;2.50;99.90;;;;;;5095093;28;20039;-72
2020/12/29 02:04:08;;;;;;;0.43;0.22;;;2.50;99.90;;;;;;5088066;28;20043;-73
2020/12/29 02:06:38;;;;;;;0.95;0.30;;;2.50;99.90;;;;;;5079215;28;20031;-71
2020/12/29 02:09:05;;;;;;;0.45;0.30;;;2.60;99.90;;;;;;5085836;28;20032;-73
2020/12/29 02:11:31;;;;;;;0.20;0.10;;;2.50;99.90;;;;;;5056607;28;20389;-72
2020/12/29 02:13:57;;;;;;;0.60;0.40;;;2.50;99.90;;;;;;5073486;28;20111;-75
2020/12/29 02:16:24;;;;;;;0.40;0.40;;;2.50;99.90;;;;;;5074820;28;20112;-72
2020/12/29 02:18:49;;;;;;;1.15;0.20;;;2.50;99.90;;;;;;5074293;28;20074;-72
2020/12/29 02:21:15;;;;;;;0.63;0.30;;;2.50;99.90;;;;;;5073923;28;20032;-73
2020/12/29 02:23:41;;;;;;;0.50;0.20;;;2.50;99.90;;;;;;5072650;28;20115;-73
2020/12/29 02:26:07;;;;;;;0.68;0.30;;;2.60;99.90;;;;;;5073111;28;20031;-71
2020/12/29 02:28:33;;;;;;;1.00;0.20;;;2.60;99.90;;;;;;5074107;28;20034;-72
2020/12/29 02:30:58;;;;;;;2.03;0.35;;;2.70;99.90;;;;;;5073603;28;20040;-75
2020/12/29 02:33:24;;;;;;;0.63;0.20;;;2.70;99.90;;;;;;5073934;28;20063;-72
2020/12/29 02:35:51;;;;;;;0.20;0.20;;;2.70;99.90;;;;;;5105416;28;20026;-73
2020/12/29 02:38:24;;;;;;;0.25;0.10;;;2.80;99.90;;;;;;5113408;28;20073;-72
2020/12/29 02:40:51;;;;;;;0.20;0.10;;;2.80;99.90;;;;;;5114800;28;20517;-73
2020/12/29 02:43:17;;;;;;;0.75;0.38;;;2.80;99.90;;;;;;5113315;28;20031;-73
2020/12/29 02:45:43;;;;;;;0.50;0.20;;;2.90;99.90;;;;;;5114334;28;20454;-72
2020/12/29 02:48:10;;;;;;;0.10;0.10;;;3.00;99.90;;;;;;5113753;28;20115;-72
2020/12/29 02:50:36;;;;;;;5.07;0.50;;;3.10;99.90;;;;;;5114446;28;20465;-72
2020/12/29 02:53:02;;;;;;;0.43;0.17;;;3.10;99.90;;;;;;5113739;28;20039;-73
2020/12/29 02:55:28;;;;;;;0.00;0.00;;;3.20;99.90;;;;;;5095525;28;20024;-73
2020/12/29 02:57:54;;;;;;;0.20;0.10;;;3.10;99.90;;;;;;5114651;28;20026;-71
2020/12/29 03:00:21;;;;;;;0.52;0.10;;;3.10;99.90;;;;;;5113429;28;20032;-72
2020/12/29 03:02:47;;;;;;;0.28;0.28;;;3.20;99.90;;;;;;5095984;28;20036;-72
2020/12/29 03:05:12;;;;;;;1.75;0.10;;;3.20;99.90;;;;;;5066948;28;20032;-75
2020/12/29 03:07:38;;;;;;;0.13;0.10;;;3.20;99.90;;;;;;5088929;28;20062;-72
2020/12/29 03:10:08;;;;;;;0.10;0.10;;;3.20;99.90;;;;;;5076404;28;20036;-73
2020/12/29 03:12:39;;;;;;;0.98;0.10;;;3.20;99.90;;;;;;5073613;28;20031;-72
2020/12/29 03:15:09;;;;;;;0.52;0.10;;;3.10;99.90;;;;;;5072346;28;20056;-75
2020/12/29 03:17:35;;;;;;;0.45;0.10;;;3.10;99.90;;;;;;5073400;28;20432;-72
2020/12/29 03:20:05;;;;;;;1.48;0.10;;;3.00;99.90;;;;;;5072533;28;20033;-73
2020/12/29 03:22:31;;;;;;;0.68;0.13;;;3.00;99.90;;;;;;5073156;28;20029;-72
2020/12/29 03:24:56;;;;;;;0.10;0.10;;;2.90;99.90;;;;;;5072653;28;20028;-75
2020/12/29 03:27:22;;;;;;;0.20;0.10;;;2.90;99.90;;;;;;5072053;28;20439;-73
2020/12/29 03:29:48;;;;;;;0.13;0.00;;;2.90;99.90;;;;;;5073191;28;20451;-71
2020/12/29 03:32:14;;;;;;;0.38;0.00;;;2.90;99.90;;;;;;5070928;28;20067;-72
2020/12/29 03:34:39;;;;;;;2.13;0.10;;;2.90;99.90;;;;;;5070761;28;20043;-72
2020/12/29 03:37:06;;;;;;;1.95;0.10;;;2.90;99.90;;;;;;5070445;28;20103;-73
2020/12/29 03:39:33;;;;;;;0.20;0.10;;;2.80;99.90;;;;;;5095351;28;20035;-74
2020/12/29 03:41:58;;;;;;;0.20;0.00;;;2.80;99.90;;;;;;5113210;28;20031;-75
2020/12/29 03:44:24;;;;;;;1.13;0.10;;;2.80;99.90;;;;;;5113112;28;20372;-72
2020/12/29 03:46:50;;;;;;;0.22;0.10;;;2.80;99.90;;;;;;5113194;28;20106;-71
2020/12/29 03:49:17;;;;;;;0.10;0.10;;;2.70;99.90;;;;;;5112553;28;20103;-72
2020/12/29 03:51:42;;;;;;;2.08;0.22;;;2.70;99.90;;;;;;5113226;28;20384;-72
2020/12/29 03:54:08;;;;;;;1.20;0.20;;;2.70;99.90;;;;;;5112259;28;20023;-69
2020/12/29 03:56:34;;;;;;;0.30;0.10;;;2.60;99.90;;;;;;5112488;28;20032;-72
2020/12/29 03:58:59;;;;;;;0.10;0.10;;;2.60;99.90;;;;;;5113023;28;20069;-75
2020/12/29 04:01:25;;;;;;;1.30;0.10;;;2.50;99.90;;;;;;5112795;28;20038;-75
2020/12/29 04:03:51;;;;;;;0.20;0.00;;;2.60;99.90;;;;;;5106376;28;21038;-74
2020/12/29 04:06:16;;;;;;;3.05;0.20;;;2.50;99.90;;;;;;5085078;28;20032;-72
2020/12/29 04:08:42;;;;;;;0.25;0.20;;;2.60;99.90;;;;;;5071808;28;20028;-73
2020/12/29 04:11:09;;;;;;;0.40;0.10;;;2.50;99.90;;;;;;5053565;28;20104;-72
2020/12/29 04:13:35;;;;;;;1.73;0.28;;;2.60;99.90;;;;;;5054024;28;20061;-72
2020/12/29 04:16:00;;;;;;;0.32;0.10;;;2.60;99.90;;;;;;5071735;28;20071;-75
2020/12/29 04:18:26;;;;;;;0.45;0.10;;;2.60;99.90;;;;;;5054223;28;20025;-73
2020/12/29 04:20:52;;;;;;;1.60;0.15;;;2.70;99.90;;;;;;5072224;28;20132;-72
2020/12/29 04:23:17;;;;;;;0.63;0.20;;;2.70;99.90;;;;;;5053629;28;20025;-72
2020/12/29 04:25:43;;;;;;;0.20;0.10;;;2.70;99.90;;;;;;5075216;28;20024;-73
2020/12/29 04:28:08;;;;;;;1.80;0.10;;;2.80;99.90;;;;;;5091589;28;20103;-72
2020/12/29 04:30:34;;;;;;;2.30;0.20;;;2.80;99.90;;;;;;5092404;28;20028;-72
2020/12/29 04:33:00;;;;;;;0.22;0.10;;;2.80;99.90;;;;;;5091946;28;20044;-75
2020/12/29 04:35:25;;;;;;;0.75;0.20;;;2.80;99.90;;;;;;5082510;28;20477;-70
2020/12/29 04:37:51;;;;;;;0.65;0.20;;;2.80;99.90;;;;;;5092174;28;20379;-73
2020/12/29 04:40:17;;;;;;;2.10;0.40;;;2.70;99.90;;;;;;5090964;28;20101;-71
2020/12/29 04:42:42;;;;;;;1.42;0.10;;;2.70;99.90;;;;;;5091786;28;20039;-71
2020/12/29 04:45:08;;;;;;;0.30;0.20;;;2.70;99.90;;;;;;5090908;28;20066;-71
2020/12/29 04:47:35;;;;;;;3.00;0.43;;;2.80;99.90;;;;;;5073325;28;20028;-73
2020/12/29 04:50:02;;;;;;;0.70;0.15;;;2.80;99.90;;;;;;5091232;28;20020;-75
2020/12/29 04:52:30;;;;;;;1.00;0.20;;;2.80;99.90;;;;;;5092398;28;20047;-71
2020/12/29 04:54:56;;;;;;;1.27;0.30;;;2.90;99.90;;;;;;5092029;28;20052;-73
2020/12/29 04:57:25;;;;;;;1.95;0.40;;;3.00;99.90;;;;;;5090620;28;20616;-74
2020/12/29 04:59:52;;;;;;;0.67;0.20;;;2.90;99.90;;;;;;5091878;28;20119;-72
2020/12/29 05:02:17;;;;;;;0.88;0.10;;;3.00;99.90;;;;;;5090902;28;20111;-72
2020/12/29 05:04:43;;;;;;;0.90;0.30;;;2.90;99.90;;;;;;5086108;28;20469;-74
2020/12/29 05:07:09;;;;;;;2.53;0.47;;;2.80;99.90;;;;;;5085435;28;20023;-75
2020/12/29 05:09:35;;;;;;;0.57;0.20;;;2.80;99.90;;;;;;5091441;28;20028;-74
2020/12/29 05:12:01;;;;;;;1.13;0.32;;;2.70;99.90;;;;;;5083399;28;20106;-75
2020/12/29 05:14:28;;;;;;;2.53;0.30;;;2.60;99.90;;;;;;5074441;28;20436;-73
2020/12/29 05:16:57;;;;;;;1.17;0.20;;;2.60;99.90;;;;;;5101798;28;20031;-73
2020/12/29 05:19:23;;;;;;;4.97;0.45;;;2.60;99.90;;;;;;5092999;28;20030;-75
2020/12/29 05:21:49;;;;;;;0.57;0.20;;;2.60;99.90;;;;;;5111941;28;20093;-74
2020/12/29 05:24:24;;;;;;;1.13;0.10;;;2.60;99.90;;;;;;5111343;28;20019;-72
2020/12/29 05:26:56;;;;;;;3.78;0.45;;;2.60;99.90;;;;;;5111446;28;20034;-73
2020/12/29 05:29:23;;;;;;;4.15;1.20;;;2.60;99.90;;;;;;5111165;28;20030;-74
2020/12/29 05:31:50;;;;;;;1.05;0.30;;;2.60;99.90;;;;;;5088849;28;20041;-73
2020/12/29 05:34:22;;;;;;;2.15;0.40;;;2.60;99.90;;;;;;5076711;28;20035;-74
2020/12/29 05:36:49;;;;;;;1.17;0.22;;;2.70;99.90;;;;;;5085084;28;20086;-74
2020/12/29 05:39:14;;;;;;;1.75;0.28;;;2.70;99.90;;;;;;5102209;28;20089;-73
2020/12/29 05:41:45;;;;;;;0.80;0.35;;;2.80;99.90;;;;;;5093567;28;20472;-73
2020/12/29 05:44:40;;;;;;;1.63;0.20;;;2.90;99.90;;;;;;5092108;28;20027;-75
2020/12/29 05:47:05;;;;;;;0.00;0.00;;;2.80;99.90;;;;;;5111173;28;20023;-75
2020/12/29 05:49:32;;;;;;;3.72;0.20;;;3.00;99.90;;;;;;5088829;28;20381;-75
2020/12/29 05:51:59;;;;;;;0.85;0.10;;;3.10;99.90;;;;;;5085791;28;20044;-75
2020/12/29 05:54:26;;;;;;;1.58;0.30;;;3.10;99.90;;;;;;5090723;28;20035;-74
2020/12/29 05:56:53;;;;;;;2.20;0.90;;;3.10;99.90;;;;;;5090682;28;20020;-73
2020/12/29 05:59:19;;;;;;;1.23;0.32;;;3.10;99.90;;;;;;5094239;28;20028;-73
2020/12/29 06:01:50;;;;;;;0.50;0.17;;;3.10;99.90;;;;;;5082308;28;20028;-73
2020/12/29 06:04:17;;;;;;;0.85;0.17;;;3.00;99.90;;;;;;5093153;28;20165;-71
2020/12/29 06:06:44;;;;;;;0.10;0.10;;;3.00;99.90;;;;;;5093015;28;20028;-74
2020/12/29 06:09:12;;;;;;;1.00;0.20;;;2.90;99.90;;;;;;5093775;28;20024;-73
2020/12/29 06:11:53;;;;;;;0.50;0.20;;;2.90;99.90;;;;;;5094247;28;20039;-74
2020/12/29 06:14:24;;;;;;;0.60;0.10;;;2.80;99.90;;;;;;5093997;28;20110;-69
2020/12/29 06:16:49;;;;;;;;;;;2.80;99.90;;;;;;5094908;28;20484;-72
2020/12/29 06:19:31;;;;;;;2.38;0.50;;;2.70;99.90;;;;;;5093700;28;19904;-75
2020/12/29 06:22:09;;;;;;;0.98;0.10;;;2.60;99.90;;;;;;5094713;28;20477;-76
2020/12/29 06:24:43;;;;;;;4.03;0.50;;;2.60;99.90;;;;;;5094434;28;20036;-72
2020/12/29 06:27:11;;;;;;;0.90;0.20;;;2.60;99.90;;;;;;5109244;28;20024;-74
2020/12/29 06:29:40;;;;;;;2.13;0.40;;;2.60;99.90;;;;;;5114553;28;20057;-71
2020/12/29 06:32:11;;;;;;;2.13;0.55;;;2.60;99.90;;;;;;5074377;28;20488;-75
2020/12/29 06:34:38;;;;;;;0.77;0.28;;;2.60;99.90;;;;;;5082977;28;20237;-74
2020/12/29 06:37:22;;;;;;;2.03;1.02;;;2.50;99.90;;;;;;5089653;28;20099;-75
2020/12/29 06:39:51;;;;;;;1.40;0.20;;;2.50;99.90;;;;;;5087195;28;20016;-73
2020/12/29 06:42:18;;;;;;;1.45;0.30;;;2.50;99.90;;;;;;5082963;28;20062;-69
2020/12/29 06:44:44;;;;;;;2.97;0.40;;;2.60;99.90;;;;;;5084783;28;20040;-73
2020/12/29 06:47:13;;;;;;;1.05;0.20;;;2.60;99.90;;;;;;5073240;28;20113;-75
2020/12/29 06:49:44;;;;;;;1.00;0.50;;;2.60;99.90;;;;;;5074068;28;20024;-74
2020/12/29 06:52:18;;;;;;;3.30;1.17;;;2.60;99.90;;;;;;5078277;28;20113;-73
2020/12/29 06:54:49;;;;;;;2.78;0.40;;;2.50;99.90;;;;;;5088060;28;20028;-72
2020/12/29 06:57:15;;;;;;;2.25;0.30;;;2.50;99.90;;;;;;5109696;28;20384;-71
2020/12/29 06:59:42;;;;;;;1.75;0.60;;;2.50;99.90;;;;;;5114185;28;20032;-72
2020/12/29 07:02:19;;;;;;;1.00;0.30;;;2.50;99.90;;;;;;5113365;28;20548;-76
2020/12/29 07:04:53;;;;;;;2.17;0.40;;;2.50;99.90;;;;;;5099652;28;20035;-73
2020/12/29 07:07:53;;;;;;;1.75;0.38;;;2.50;99.90;;;;;;5059132;28;20025;-73
2020/12/29 07:10:19;;;;;;;3.70;0.60;;;2.50;99.90;;;;;;5071725;28;20028;-74
2020/12/29 07:12:49;;;;;;;1.75;0.50;;;2.50;99.90;;;;;;5082720;28;20081;-70
2020/12/29 07:15:19;;;;;;;3.65;0.35;;;2.50;99.90;;;;;;5081635;28;20024;-75
2020/12/29 07:17:54;;;;;;;0.57;0.10;;;2.60;99.90;;;;;;5081264;28;20028;-73
2020/12/29 07:20:22;;;;;;;3.67;0.60;;;2.60;99.90;;;;;;5061806;28;20076;-73
2020/12/29 07:23:05;;;;;;;2.45;0.43;;;2.70;99.90;;;;;;5082068;28;20389;-74
2020/12/29 07:25:32;;;;;;;4.60;0.50;;;2.70;99.90;;;;;;5081985;28;20020;-71
2020/12/29 07:28:00;;;;;;;3.33;0.40;;;2.70;99.90;;;;;;5084214;28;20012;-72
2020/12/29 07:30:28;;;;;;;1.55;0.35;;;2.70;99.90;;;;;;5064969;28;20124;-75
2020/12/29 07:32:59;;;;;;;4.50;0.40;;;2.70;99.90;;;;;;5064484;28;20474;-73
2020/12/29 07:35:26;;;;;;;;;;;2.70;99.90;;;;;;5078633;28;20028;-76
2020/12/29 07:37:56;;;;;;;1.58;0.38;;;2.60;99.90;;;;;;5083088;28;19920;-74
2020/12/29 07:40:22;;;;;;;1.75;0.55;;;2.70;99.90;;;;;;5079068;28;20025;-73
2020/12/29 07:42:48;;;;;;;4.32;0.70;;;2.70;99.90;;;;;;5080965;28;20038;-72
2020/12/29 07:45:13;;;;;;;1.27;0.40;;;2.70;99.90;;;;;;5081472;28;20099;-74
2020/12/29 07:47:39;;;;;;;1.95;0.45;;;2.70;99.90;;;;;;5082152;28;20081;-73
2020/12/29 07:50:05;;;;;;;1.83;0.32;;;2.80;99.90;;;;;;5087920;28;20022;-74
2020/12/29 07:52:31;;;;;;;1.02;0.43;;;2.80;99.90;;;;;;5077532;28;20037;-73
2020/12/29 07:55:17;;;;;;;2.22;0.50;;;2.80;99.90;;;;;;5078073;28;20027;-74
2020/12/29 07:57:44;;;;;;;3.55;0.55;;;2.80;99.90;;;;;;5073026;28;20074;-74
2020/12/29 08:00:14;;;;;;;3.38;0.32;;;2.90;99.90;;;;;;5072152;28;20020;-77
2020/12/29 08:02:41;;;;;;;;;;;2.90;99.90;;;;;;5054609;28;20128;-74
2020/12/29 08:05:07;;;;;;;2.83;0.50;;;3.00;99.90;;;;;;5072095;28;19908;-78
2020/12/29 08:07:34;;;;;;;2.50;0.50;;;3.00;99.90;;;;;;5086921;28;20480;-76
2020/12/29 08:10:00;;;;;;;2.85;0.30;;;3.00;99.90;;;;;;5093245;28;20024;-70
2020/12/29 08:12:26;;;;;;;3.88;0.70;;;3.10;99.90;;;;;;5092275;28;20182;-77
2020/12/29 08:14:52;;;;;;;3.83;0.60;;;3.10;99.90;;;;;;5092915;28;20092;-71
2020/12/29 08:17:18;;;;;;;8.00;0.82;;;3.10;99.90;;;;;;5092051;28;20028;-77
2020/12/29 08:19:57;;;;;;;2.60;0.52;;;3.10;99.90;;;;;;5092522;28;20020;-71
2020/12/29 08:22:27;;;;;;;2.88;0.50;;;3.20;99.90;;;;;;5090661;28;20035;-74
2020/12/29 08:24:53;;;;;;;;;;;3.20;99.90;;;;;;5056982;28;20124;-69
2020/12/29 08:27:18;;;;;;;3.63;0.73;;;3.30;99.90;;;;;;5082233;28;19904;-73
2020/12/29 08:29:45;;;;;;;1.60;0.60;;;3.30;99.90;;;;;;5092153;28;20028;-73
2020/12/29 08:32:15;;;;;;;1.42;0.40;;;3.40;99.90;;;;;;5091088;28;20032;-80
2020/12/29 08:34:46;;;;;;;1.50;0.52;;;3.40;99.90;;;;;;5092430;28;20119;-73
2020/12/29 08:37:18;;;;;;;4.65;0.90;;;3.50;99.90;;;;;;5091244;28;20042;-75
2020/12/29 08:40:02;;;;;;;3.88;0.57;;;3.50;99.90;;;;;;5092024;28;20134;-73
2020/12/29 08:42:32;;;;;;;2.30;0.50;;;3.50;99.90;;;;;;5091328;28;20611;-75
2020/12/29 08:44:59;;;;;;;3.90;0.90;;;3.40;99.90;;;;;;5092142;28;20114;-73
2020/12/29 08:47:32;;;;;;;2.33;0.70;;;3.40;99.90;;;;;;5090943;28;20028;-73
2020/12/29 08:50:18;;;;;;;6.80;1.15;;;3.30;99.90;;;;;;5092319;28;20028;-73
2020/12/29 08:52:45;;;;;;;4.22;0.63;;;3.20;99.90;;;;;;5091662;28;20044;-74
2020/12/29 08:55:28;;;;;;;7.80;1.45;;;3.20;99.90;;;;;;5091640;28;20024;-76
2020/12/29 08:57:56;;;;;;;3.28;0.98;;;3.10;99.90;;;;;;5087755;28;20032;-71
2020/12/29 09:00:22;;;;;;;4.35;0.50;;;3.00;99.90;;;;;;5070749;28;20472;-71
2020/12/29 09:02:48;;;;;;;4.30;1.10;;;3.00;99.90;;;;;;5053697;28;20037;-73
2020/12/29 09:05:29;;;;;;;3.35;0.70;;;3.00;99.90;;;;;;5071318;28;20044;-76
2020/12/29 09:07:56;;;;;;;5.53;0.80;;;3.00;99.90;;;;;;5071262;28;20021;-69
2020/12/29 09:10:22;;;;;;;2.92;0.63;;;3.00;99.90;;;;;;5084825;28;20359;-70
2020/12/29 09:12:48;;;;;;;1.83;0.63;;;3.00;99.90;;;;;;5090726;28;20028;-73
2020/12/29 09:15:27;;;;;;;3.35;0.82;;;3.00;99.90;;;;;;5070542;28;20389;-77
2020/12/29 09:17:58;;;;;;;2.22;0.47;;;3.00;99.90;;;;;;5073135;28;20085;-72
2020/12/29 09:20:32;;;;;;;2.00;0.30;;;2.90;99.90;;;;;;5087060;28;20024;-68
2020/12/29 09:23:11;;;;;;;3.95;0.38;;;2.90;99.90;;;;;;5079366;28;20060;-69
2020/12/29 09:25:44;;;;;;;0.77;0.57;;;2.90;99.90;;;;;;5081043;28;20105;-69
2020/12/29 09:28:20;;;;;;;1.17;0.40;;;2.90;99.90;;;;;;5080665;28;20048;-72
2020/12/29 09:31:04;;;;;;;2.00;0.40;;;2.80;99.90;;;;;;5080046;28;20396;-71
2020/12/29 09:33:31;;;;;;;3.80;0.32;;;2.90;99.90;;;;;;5081837;28;20174;-72
2020/12/29 09:36:02;;;;;;;1.83;0.38;;;2.90;99.90;;;;;;5084418;28;20035;-69
2020/12/29 09:38:29;;;;;;;1.08;0.50;;;2.90;99.90;;;;;;5065353;28;20021;-72
2020/12/29 09:40:55;;;;;;;0.85;0.50;;;2.90;99.90;;;;;;5085014;28;20020;-71
2020/12/29 09:43:23;;;;;;;2.47;0.38;;;2.90;99.90;;;;;;5082418;28;20094;-73
2020/12/29 09:45:50;;;;;;;2.75;1.83;;;2.90;99.90;;;;;;5083937;28;20422;-72
2020/12/29 09:48:17;;;;;;;0.65;0.50;;;2.90;99.90;;;;;;5083735;28;20362;-74
2020/12/29 09:50:43;;;;;;;4.63;0.50;;;2.90;99.90;;;;;;5085564;28;20087;-75
2020/12/29 09:53:08;;;;;;;3.75;0.60;;;3.00;99.90;;;;;;5083964;28;20039;-75
2020/12/29 09:55:34;;;;;;;2.15;0.77;;;3.00;99.90;;;;;;5082338;28;20017;-72
2020/12/29 09:58:00;;;;;;;2.95;0.40;;;3.00;99.90;;;;;;5084517;28;20016;-75
2020/12/29 10:00:26;;;;;;;0.47;0.20;;;3.10;99.90;;;;;;5087681;28;20035;-73
2020/12/29 10:02:52;;;;;;;1.17;0.57;;;3.20;99.90;;;;;;5095297;28;20097;-75
2020/12/29 10:05:17;;;;;;;1.80;0.50;;;3.20;99.90;;;;;;5091011;28;20082;-74
2020/12/29 10:07:46;;;;;;;0.90;0.45;;;3.20;99.90;;;;;;5079157;28;20519;-75
2020/12/29 10:10:12;;;;;;;1.45;0.65;;;3.30;99.90;;;;;;5074489;28;20107;-81
2020/12/29 10:12:38;;;;;;;1.27;0.60;;;3.30;99.90;;;;;;5075473;28;20029;-75
2020/12/29 10:15:05;;;;;;;0.90;0.52;;;3.40;99.90;;;;;;5057979;28;20071;-73
2020/12/29 10:17:31;;;;;;;2.47;0.63;;;3.40;99.90;;;;;;5073675;28;20025;-73
2020/12/29 10:19:57;;;;;;;1.52;0.50;;;3.50;99.90;;;;;;5074237;28;20028;-68
2020/12/29 10:22:25;;;;;;;1.23;0.57;;;3.60;99.90;;;;;;5073254;28;20036;-66
2020/12/29 10:24:51;;;;;;;2.33;0.73;;;3.60;99.90;;;;;;5056158;28;20056;-68
2020/12/29 10:27:16;;;;;;;1.33;0.43;;;3.70;99.90;;;;;;5082041;28;20086;-72
2020/12/29 10:29:42;;;;;;;0.65;0.43;;;3.70;99.90;;;;;;5096817;28;20039;-70
2020/12/29 10:32:07;;;;;;;0.40;0.30;;;3.80;99.90;;;;;;5115053;28;20036;-74
2020/12/29 10:34:33;;;;;;;1.33;0.50;;;3.80;99.90;;;;;;5094872;28;20021;-75
2020/12/29 10:36:59;;;;;;;2.83;0.63;;;3.70;99.90;;;;;;5074323;28;20338;-75
2020/12/29 10:39:24;;;;;;;1.48;0.50;;;3.70;99.90;;;;;;5072004;28;20032;-77
2020/12/29 10:41:50;;;;;;;0.75;0.65;;;3.70;99.90;;;;;;5075891;28;20526;-77
2020/12/29 10:44:15;;;;;;;0.93;0.45;;;3.80;99.90;;;;;;5092750;28;20024;-76
2020/12/29 10:46:46;;;;;;;0.98;0.45;;;3.80;99.90;;;;;;5076182;28;20020;-76
2020/12/29 10:49:11;;;;;;;1.02;0.50;;;3.90;99.90;;;;;;5094282;28;20153;-72
2020/12/29 10:51:37;;;;;;;0.77;0.28;;;4.00;99.90;;;;;;5074333;28;20584;-75
2020/12/29 10:54:04;;;;;;;0.65;0.60;;;4.00;99.90;;;;;;5075451;28;20047;-75
2020/12/29 10:56:30;;;;;;;2.97;0.60;;;4.10;99.90;;;;;;5092886;28;20491;-75
2020/12/29 10:58:56;;;;;;;1.00;0.60;;;4.20;99.90;;;;;;5076020;28;20111;-74
2020/12/29 11:01:23;;;;;;;1.88;0.52;;;4.30;99.90;;;;;;5093276;28;20066;-71
2020/12/29 11:03:50;;;;;;;1.02;0.47;;;4.40;99.90;;;;;;5090687;28;20040;-71
2020/12/29 11:06:20;;;;;;;0.82;0.40;;;4.30;99.90;;;;;;5077006;28;20024;-76
2020/12/29 11:08:48;;;;;;;1.83;0.60;;;4.30;99.90;;;;;;5094006;28;20024;-68
2020/12/29 11:11:15;;;;;;;3.20;0.60;;;4.40;99.90;;;;;;5075488;28;20365;-75
2020/12/29 11:13:41;;;;;;;2.30;0.70;;;4.40;99.90;;;;;;5093336;28;20043;-73
2020/12/29 11:16:13;;;;;;;1.55;0.80;;;4.30;99.90;;;;;;5093037;28;20103;-74
2020/12/29 11:18:38;;;;;;;0.75;0.28;;;4.30;99.90;;;;;;5078267;28;20027;-74
2020/12/29 11:21:04;;;;;;;0.30;0.30;;;4.30;99.90;;;;;;5092177;28;20388;-74
2020/12/29 11:23:30;;;;;;;3.05;0.40;;;4.40;99.90;;;;;;5074776;28;20020;-74
2020/12/29 11:25:57;;;;;;;0.60;0.25;;;4.60;99.90;;;;;;5092841;28;20024;-77
2020/12/29 11:28:23;;;;;;;1.30;0.43;;;4.80;99.90;;;;;;5092913;28;20100;-72
2020/12/29 11:30:49;;;;;;;1.17;0.30;;;4.90;99.90;;;;;;5059409;28;20063;-75
2020/12/29 11:33:15;;;;;;;0.95;0.32;;;5.00;97.00;;;;;;5093262;28;20048;-75
2020/12/29 11:35:43;;;;;;;1.30;0.40;;;5.00;96.80;;;;;;5055343;28;20031;-69
2020/12/29 11:38:09;;;;;;;0.20;0.20;;;5.10;99.00;;;;;;5055642;28;20105;-72
2020/12/29 11:40:35;;;;;;;0.77;0.30;;;5.10;99.00;;;;;;5054429;28;20724;-72
2020/12/29 11:43:01;;;;;;;1.10;0.40;;;5.10;95.70;;;;;;5054962;28;20032;-71
2020/12/29 11:45:27;;;;;;;1.23;0.57;;;5.10;96.40;;;;;;5054182;28;20374;-74
2020/12/29 11:47:52;;;;;;;1.15;0.30;;;5.10;95.50;;;;;;5038589;28;20036;-72
2020/12/29 11:50:18;;;;;;;3.38;0.17;;;5.10;96.80;;;;;;5072193;28;20532;-78
2020/12/29 11:52:44;;;;;;;1.63;0.20;;;5.10;92.10;;;;;;5072158;28;20059;-72
2020/12/29 11:55:10;;;;;;;2.67;0.73;;;5.10;92.50;;;;;;5072600;28;20029;-71
2020/12/29 11:57:36;;;;;;;3.08;0.38;;;5.00;92.60;;;;;;5071739;28;20021;-73
2020/12/29 12:00:06;;;;;;;0.85;0.43;;;4.90;93.70;;;;;;5054681;28;20024;-71
2020/12/29 12:02:31;;;;;;;1.17;0.60;;;4.80;93.60;;;;;;5071872;28;20041;-71
2020/12/29 12:04:57;;;;;;;1.02;0.30;;;4.80;93.90;;;;;;5065839;28;20028;-72
2020/12/29 12:07:23;;;;;;;0.98;0.30;;;4.90;94.20;;;;;;5091093;28;20461;-70
2020/12/29 12:09:48;;;;;;;0.73;0.20;;;4.90;93.00;;;;;;5082791;28;20050;-76
2020/12/29 12:12:14;;;;;;;1.90;0.80;;;5.00;93.20;;;;;;5078823;28;20040;-73
2020/12/29 12:14:40;;;;;;;2.80;0.55;;;5.00;92.40;;;;;;5071426;28;20086;-69
2020/12/29 12:17:05;;;;;;;1.88;0.40;;;5.10;91.10;;;;;;5059455;28;20039;-69
2020/12/29 12:19:31;;;;;;;0.77;0.47;;;5.10;91.90;;;;;;5089464;28;20089;-68
2020/12/29 12:21:57;;;;;;;2.38;0.93;;;5.10;92.70;;;;;;5077781;28;20032;-72
2020/12/29 12:24:22;;;;;;;1.40;0.35;;;5.20;90.70;;;;;;5071450;28;20486;-69
2020/12/29 12:26:51;;;;;;;0.60;0.20;;;5.20;91.20;;;;;;5054247;28;20021;-68
2020/12/29 12:29:16;;;;;;;0.63;0.20;;;5.10;89.90;;;;;;5077780;28;20025;-72
2020/12/29 12:31:43;;;;;;;0.57;0.30;;;5.00;90.80;;;;;;5083023;28;20051;-74
2020/12/29 12:34:09;;;;;;;0.52;0.20;;;4.90;92.80;;;;;;5079688;28;20108;-70
2020/12/29 12:36:34;;;;;;;0.68;0.30;;;4.90;93.00;;;;;;5082416;28;20095;-69
2020/12/29 12:39:00;;;;;;;0.88;0.20;;;4.90;91.90;;;;;;5064083;28;20024;-68
2020/12/29 12:41:26;;;;;;;0.47;0.25;;;4.90;93.10;;;;;;5080755;28;20481;-67
2020/12/29 12:43:51;;;;;;;0.75;0.15;;;5.00;93.50;;;;;;5080284;28;20038;-69
2020/12/29 12:46:17;;;;;;;2.15;0.35;;;4.90;93.70;;;;;;5065069;28;20103;-72
2020/12/29 12:48:43;;;;;;;2.25;0.45;;;4.90;94.60;;;;;;5073204;28;20416;-68
2020/12/29 12:51:09;;;;;;;2.22;0.98;;;4.80;95.00;;;;;;5073446;28;20052;-69
2020/12/29 12:53:36;;;;;;;0.45;0.40;;;4.70;95.50;;;;;;5074038;28;20508;-71
2020/12/29 12:56:02;;;;;;;2.60;0.50;;;4.70;96.40;;;;;;5070647;28;20017;-70
2020/12/29 12:58:29;;;;;;;0.75;0.60;;;4.60;97.10;;;;;;5070239;28;20036;-71
2020/12/29 13:00:55;;;;;;;1.08;0.68;;;4.60;98.10;;;;;;5071832;28;20101;-68